Time;durP1;ratioP1;P1;durP2;ratioP2;P2;SDS_P1;SDS_P2;PMS_P1;PMS_P2;Temp;Humidity;BMP_temperature;BMP_pressure;BME280_temperature;BME280_humidity;BME280_pressure;Samples;Min_cycle;Max_cycle;Signal;HPM_P1;HPM_P2
2021/10/20 00:01:20;;;;;;;7.65;5.13;;;10.60;99.90;;;;;;5033875;28;20052;-68
2021/10/20 00:03:47;;;;;;;9.23;6.00;;;10.60;99.90;;;;;;5022718;28;20048;-68
2021/10/20 00:06:15;;;;;;;9.98;5.68;;;10.60;99.90;;;;;;5038448;28;20049;-68
2021/10/20 00:08:42;;;;;;;9.50;5.43;;;10.50;99.90;;;;;;5032866;28;20168;-68
2021/10/20 00:11:10;;;;;;;8.07;5.30;;;10.50;99.90;;;;;;5033217;28;20385;-68
2021/10/20 00:13:37;;;;;;;8.70;5.53;;;10.50;99.90;;;;;;5031492;28;20041;-68
2021/10/20 00:16:05;;;;;;;7.70;5.10;;;10.40;99.90;;;;;;5026828;28;20041;-68
2021/10/20 00:18:32;;;;;;;8.15;5.85;;;10.40;99.90;;;;;;5023399;28;20353;-68
2021/10/20 00:21:04;;;;;;;10.38;5.07;;;10.30;99.90;;;;;;5011942;28;20049;-68
2021/10/20 00:23:31;;;;;;;8.57;5.10;;;10.30;99.90;;;;;;5015303;28;20527;-68
2021/10/20 00:25:59;;;;;;;9.30;6.03;;;10.30;99.90;;;;;;5029989;28;20096;-68
2021/10/20 00:28:26;;;;;;;9.30;5.85;;;10.30;99.90;;;;;;5029405;28;20042;-68
2021/10/20 00:30:53;;;;;;;8.95;6.30;;;10.20;99.90;;;;;;5031767;28;20059;-68
2021/10/20 00:33:20;;;;;;;9.45;5.82;;;10.20;99.90;;;;;;5031531;28;20049;-68
2021/10/20 00:35:48;;;;;;;7.18;4.85;;;10.20;99.90;;;;;;5032114;28;20041;-68
2021/10/20 00:38:15;;;;;;;7.78;5.72;;;10.20;99.90;;;;;;5024072;28;20121;-68
2021/10/20 00:40:42;;;;;;;9.98;5.45;;;10.10;99.90;;;;;;5033655;28;20045;-68
2021/10/20 00:43:10;;;;;;;7.72;4.90;;;10.10;99.90;;;;;;5030151;28;20047;-68
2021/10/20 00:45:37;;;;;;;8.77;5.57;;;10.10;99.90;;;;;;5035775;28;20042;-68
2021/10/20 00:48:04;;;;;;;7.45;5.43;;;10.10;99.90;;;;;;5030599;28;20045;-68
2021/10/20 00:50:32;;;;;;;8.93;5.72;;;10.00;99.90;;;;;;5028965;28;20125;-68
2021/10/20 00:52:59;;;;;;;10.30;7.43;;;10.00;99.90;;;;;;5031682;28;20037;-68
2021/10/20 00:55:26;;;;;;;11.43;7.05;;;10.00;99.90;;;;;;5031136;28;20060;-68
2021/10/20 00:57:53;;;;;;;12.38;7.63;;;10.00;99.90;;;;;;5030650;28;20408;-68
2021/10/20 01:00:21;;;;;;;10.45;7.18;;;10.00;99.90;;;;;;5029222;28;20038;-68
2021/10/20 01:02:48;;;;;;;9.65;6.32;;;10.00;99.90;;;;;;5012478;28;20484;-68
2021/10/20 01:05:16;;;;;;;8.88;6.10;;;9.90;99.90;;;;;;5032464;28;20390;-68
2021/10/20 01:07:44;;;;;;;8.43;5.85;;;9.90;99.90;;;;;;5039739;28;20391;-68
2021/10/20 01:10:12;;;;;;;8.82;5.97;;;9.80;99.90;;;;;;5036381;28;20045;-68
2021/10/20 01:12:40;;;;;;;8.65;5.80;;;9.90;99.90;;;;;;5040529;28;20055;-68
2021/10/20 01:15:20;;;;;;;9.55;6.07;;;9.80;99.90;;;;;;5039451;28;20053;-68
2021/10/20 01:17:47;;;;;;;8.82;6.13;;;9.80;99.90;;;;;;5011028;28;20056;-68
2021/10/20 01:20:16;;;;;;;9.15;5.65;;;9.80;99.90;;;;;;5034410;28;20496;-68
2021/10/20 01:22:44;;;;;;;9.70;6.13;;;9.80;99.90;;;;;;5032338;28;20399;-68
2021/10/20 01:25:12;;;;;;;8.95;5.32;;;9.80;99.90;;;;;;5039392;28;20046;-68
2021/10/20 01:27:39;;;;;;;8.35;5.38;;;9.70;99.90;;;;;;5022291;28;20056;-68
2021/10/20 01:30:08;;;;;;;7.80;5.30;;;9.70;99.90;;;;;;5034090;28;20497;-68
2021/10/20 01:32:35;;;;;;;10.98;5.68;;;9.70;99.90;;;;;;5040598;28;20047;-68
2021/10/20 01:35:03;;;;;;;8.25;5.68;;;9.80;99.90;;;;;;5044180;28;20052;-68
2021/10/20 01:37:31;;;;;;;8.07;5.32;;;9.80;99.90;;;;;;5042140;28;20067;-68
2021/10/20 01:39:58;;;;;;;8.00;5.32;;;9.80;99.90;;;;;;5046256;28;20041;-68
2021/10/20 01:42:27;;;;;;;6.82;4.90;;;9.80;99.90;;;;;;5021548;28;20065;-68
2021/10/20 01:44:54;;;;;;;7.25;4.80;;;9.80;99.90;;;;;;5047528;28;20041;-68
2021/10/20 01:47:22;;;;;;;10.40;5.70;;;9.80;99.90;;;;;;5024038;28;20128;-68
2021/10/20 01:49:50;;;;;;;8.23;5.18;;;9.90;99.90;;;;;;5036411;28;20048;-68
2021/10/20 01:52:17;;;;;;;9.45;5.40;;;9.90;99.90;;;;;;5038372;28;20404;-68
2021/10/20 01:54:45;;;;;;;8.25;5.20;;;9.90;99.90;;;;;;5014400;28;20424;-68
2021/10/20 01:57:12;;;;;;;10.02;5.40;;;9.90;99.90;;;;;;5033731;28;20041;-68
2021/10/20 01:59:39;;;;;;;7.68;4.95;;;9.90;99.90;;;;;;5015102;28;20050;-68
2021/10/20 02:02:18;;;;;;;8.77;5.20;;;10.00;99.90;;;;;;5032960;28;20049;-68
2021/10/20 02:04:47;;;;;;;9.30;5.53;;;10.00;99.90;;;;;;5038211;28;20095;-67
2021/10/20 02:07:14;;;;;;;8.90;5.03;;;10.00;99.90;;;;;;5044772;28;20483;-68
2021/10/20 02:09:42;;;;;;;7.43;4.95;;;10.00;99.90;;;;;;5049463;28;20051;-67
2021/10/20 02:12:09;;;;;;;8.45;4.88;;;10.10;99.90;;;;;;5043982;28;20080;-67
2021/10/20 02:14:37;;;;;;;9.82;5.43;;;10.00;99.90;;;;;;5031304;28;20070;-67
2021/10/20 02:17:05;;;;;;;7.72;5.00;;;10.00;99.90;;;;;;5036466;28;20492;-67
2021/10/20 02:19:34;;;;;;;7.13;4.45;;;10.00;99.90;;;;;;5044134;28;20045;-67
2021/10/20 02:22:03;;;;;;;8.38;4.50;;;10.00;99.90;;;;;;5039894;28;20092;-67
2021/10/20 02:24:31;;;;;;;8.70;5.20;;;10.00;99.90;;;;;;5045718;28;20048;-67
2021/10/20 02:26:58;;;;;;;9.75;4.82;;;9.90;99.90;;;;;;5043215;28;20049;-67
2021/10/20 02:29:25;;;;;;;11.82;4.68;;;9.80;99.90;;;;;;5026597;28;20077;-67
2021/10/20 02:31:53;;;;;;;10.80;4.93;;;9.80;99.90;;;;;;5033740;28;20406;-67
2021/10/20 02:34:21;;;;;;;7.38;4.95;;;9.70;99.90;;;;;;5032822;28;20075;-67
2021/10/20 02:36:49;;;;;;;7.60;4.85;;;9.70;99.90;;;;;;5035114;28;20048;-67
2021/10/20 02:39:16;;;;;;;8.98;5.43;;;9.70;99.90;;;;;;5034678;28;20037;-67
2021/10/20 02:41:44;;;;;;;7.95;4.95;;;9.70;99.90;;;;;;5028280;28;20396;-68
2021/10/20 02:44:11;;;;;;;8.25;5.35;;;9.70;99.90;;;;;;5022042;28;20488;-67
2021/10/20 02:46:39;;;;;;;8.52;4.95;;;9.60;99.90;;;;;;5040720;28;20407;-67
2021/10/20 02:49:06;;;;;;;10.50;5.32;;;9.60;99.90;;;;;;5036059;28;20044;-67
2021/10/20 02:51:33;;;;;;;8.93;5.13;;;9.60;99.90;;;;;;5039928;28;20049;-66
2021/10/20 02:54:02;;;;;;;7.53;4.90;;;9.60;99.90;;;;;;5033152;28;20416;-68
2021/10/20 02:56:29;;;;;;;8.20;4.90;;;9.60;99.90;;;;;;5029248;28;20107;-68
2021/10/20 02:58:56;;;;;;;7.03;4.70;;;9.60;99.90;;;;;;5024797;28;20041;-68
2021/10/20 03:01:24;;;;;;;7.80;5.35;;;9.60;99.90;;;;;;5029442;28;20036;-67
2021/10/20 03:03:51;;;;;;;8.25;4.80;;;9.60;99.90;;;;;;5043329;28;20483;-67
2021/10/20 03:06:19;;;;;;;8.88;4.97;;;9.60;99.90;;;;;;5044909;28;20131;-68
2021/10/20 03:08:46;;;;;;;7.68;5.07;;;9.60;99.90;;;;;;5044944;28;20041;-69
2021/10/20 03:11:14;;;;;;;7.05;4.78;;;9.60;99.90;;;;;;5021057;28;20148;-68
2021/10/20 03:13:41;;;;;;;9.90;5.05;;;9.60;99.90;;;;;;5033375;28;20122;-68
2021/10/20 03:16:08;;;;;;;8.50;4.88;;;9.50;99.90;;;;;;5038780;28;20516;-68
2021/10/20 03:18:36;;;;;;;9.15;4.85;;;9.50;99.90;;;;;;5042445;28;20041;-68
2021/10/20 03:21:03;;;;;;;7.63;4.85;;;9.50;99.90;;;;;;5045928;28;20814;-68
2021/10/20 03:23:31;;;;;;;7.35;4.70;;;9.40;99.90;;;;;;5042409;28;20365;-69
2021/10/20 03:25:58;;;;;;;8.50;4.43;;;9.40;99.90;;;;;;5045170;28;20040;-68
2021/10/20 03:28:25;;;;;;;8.32;5.22;;;9.30;99.90;;;;;;5032953;28;20483;-68
2021/10/20 03:30:53;;;;;;;8.60;5.10;;;9.30;99.90;;;;;;5033997;28;20048;-68
2021/10/20 03:33:20;;;;;;;10.07;5.28;;;9.30;99.90;;;;;;5044966;28;20045;-69
2021/10/20 03:35:47;;;;;;;9.57;5.45;;;9.20;99.90;;;;;;5031865;28;20056;-68
2021/10/20 03:38:15;;;;;;;8.32;5.35;;;9.20;99.90;;;;;;5044340;28;20480;-68
2021/10/20 03:40:42;;;;;;;8.90;5.32;;;9.20;99.90;;;;;;5036582;28;20061;-68
2021/10/20 03:43:30;;;;;;;8.27;5.20;;;9.30;99.90;;;;;;5047176;28;20045;-68
2021/10/20 03:45:57;;;;;;;8.70;5.63;;;9.20;99.90;;;;;;5037311;28;20082;-68
2021/10/20 03:48:24;;;;;;;12.45;5.75;;;9.20;99.90;;;;;;5032474;28;20045;-69
2021/10/20 03:50:52;;;;;;;10.80;5.78;;;9.20;99.90;;;;;;5031126;28;20053;-69
2021/10/20 03:53:19;;;;;;;10.85;6.03;;;9.20;99.90;;;;;;5027669;28;20040;-68
2021/10/20 03:55:46;;;;;;;15.23;9.95;;;9.20;99.90;;;;;;5031192;28;20699;-68
2021/10/20 03:58:15;;;;;;;11.88;7.65;;;9.30;99.90;;;;;;5027607;28;20392;-68
2021/10/20 04:00:42;;;;;;;11.90;6.90;;;9.30;99.90;;;;;;5025245;28;20435;-68
2021/10/20 04:03:09;;;;;;;9.30;5.50;;;9.30;99.90;;;;;;5037310;28;20037;-69
2021/10/20 04:05:36;;;;;;;21.38;15.25;;;9.30;99.90;;;;;;5032140;28;20048;-68
2021/10/20 04:08:04;;;;;;;12.65;8.32;;;9.30;99.90;;;;;;5037110;28;20099;-68
2021/10/20 04:10:32;;;;;;;13.35;8.45;;;9.30;99.90;;;;;;5031985;28;20167;-68
2021/10/20 04:12:59;;;;;;;13.32;8.02;;;9.20;99.90;;;;;;5031004;28;20053;-68
2021/10/20 04:15:30;;;;;;;10.13;7.32;;;9.20;99.90;;;;;;5032124;28;20659;-68
2021/10/20 04:17:58;;;;;;;13.05;8.80;;;9.20;99.90;;;;;;5030459;28;20052;-68
2021/10/20 04:20:25;;;;;;;16.67;10.90;;;9.20;99.90;;;;;;5012397;28;20046;-68
2021/10/20 04:22:53;;;;;;;18.75;11.82;;;9.20;99.90;;;;;;5037374;28;20499;-68
2021/10/20 04:25:22;;;;;;;14.02;7.93;;;9.20;99.90;;;;;;5036919;28;20044;-68
2021/10/20 04:27:51;;;;;;;15.65;9.73;;;9.10;99.90;;;;;;5017520;28;20044;-69
2021/10/20 04:30:20;;;;;;;19.10;11.60;;;9.10;99.90;;;;;;5028994;28;20163;-68
2021/10/20 04:32:47;;;;;;;24.25;15.30;;;9.10;99.90;;;;;;5038526;28;20049;-68
2021/10/20 04:35:15;;;;;;;17.52;11.55;;;9.00;99.90;;;;;;5025387;28;20113;-68
2021/10/20 04:37:42;;;;;;;12.05;8.65;;;9.00;99.90;;;;;;5031364;28;20078;-68
2021/10/20 04:40:10;;;;;;;13.48;7.90;;;9.00;99.90;;;;;;5031631;28;20408;-69
2021/10/20 04:42:40;;;;;;;11.70;7.68;;;8.90;99.90;;;;;;5033095;28;20378;-69
2021/10/20 04:45:09;;;;;;;10.93;7.20;;;8.90;99.90;;;;;;5031492;28;20041;-69
2021/10/20 04:47:36;;;;;;;11.15;6.95;;;8.80;99.90;;;;;;5013036;28;20041;-69
2021/10/20 04:50:06;;;;;;;12.70;7.72;;;8.70;99.90;;;;;;5002360;28;20134;-68
2021/10/20 04:52:35;;;;;;;10.60;6.60;;;8.80;99.90;;;;;;5029967;28;20749;-69
2021/10/20 04:55:04;;;;;;;15.55;6.85;;;8.70;99.90;;;;;;4997118;28;20100;-68
2021/10/20 04:57:32;;;;;;;11.13;6.90;;;8.70;99.90;;;;;;5019254;28;20140;-68
2021/10/20 05:00:00;;;;;;;12.50;7.85;;;8.70;99.90;;;;;;5020412;28;20046;-68
2021/10/20 05:02:27;;;;;;;15.77;9.88;;;8.60;99.90;;;;;;5018302;28;20042;-68
2021/10/20 05:04:54;;;;;;;17.10;11.90;;;8.60;99.90;;;;;;5034631;28;20054;-68
2021/10/20 05:07:22;;;;;;;20.10;11.80;;;8.70;99.90;;;;;;5027425;28;20048;-68
2021/10/20 05:09:49;;;;;;;12.75;9.20;;;8.70;99.90;;;;;;5041898;28;20209;-68
2021/10/20 05:12:17;;;;;;;13.07;8.15;;;8.70;99.90;;;;;;5009282;28;20050;-68
2021/10/20 05:14:44;;;;;;;19.55;11.85;;;8.70;99.90;;;;;;5016223;28;20116;-69
2021/10/20 05:17:11;;;;;;;14.98;9.68;;;8.80;99.90;;;;;;5034990;28;20143;-69
2021/10/20 05:19:39;;;;;;;12.77;8.15;;;8.80;99.90;;;;;;5031099;28;20060;-69
2021/10/20 05:22:09;;;;;;;14.50;8.27;;;8.80;99.90;;;;;;5039462;28;20117;-71
2021/10/20 05:24:36;;;;;;;18.17;10.82;;;8.80;99.90;;;;;;5045511;28;20037;-67
2021/10/20 05:27:03;;;;;;;13.10;9.25;;;8.80;99.90;;;;;;5014985;28;20535;-67
2021/10/20 05:29:32;;;;;;;11.43;7.88;;;8.80;99.90;;;;;;5021868;28;20037;-67
2021/10/20 05:32:01;;;;;;;10.25;6.90;;;8.80;99.90;;;;;;5037048;28;20103;-67
2021/10/20 05:34:28;;;;;;;9.43;6.60;;;8.70;99.90;;;;;;5045521;28;20132;-67
2021/10/20 05:36:58;;;;;;;13.38;7.18;;;8.70;99.90;;;;;;5044503;28;20144;-67
2021/10/20 05:39:29;;;;;;;14.27;8.00;;;8.70;99.90;;;;;;5025648;28;20041;-67
2021/10/20 05:41:56;;;;;;;10.55;6.85;;;8.70;99.90;;;;;;5029334;28;20551;-67
2021/10/20 05:44:23;;;;;;;12.65;7.28;;;8.70;99.90;;;;;;5033367;28;20072;-68
2021/10/20 05:46:52;;;;;;;13.07;7.15;;;8.60;99.90;;;;;;5031777;28;20037;-68
2021/10/20 05:49:19;;;;;;;11.13;7.57;;;8.60;99.90;;;;;;5022092;28;20036;-68
2021/10/20 05:51:46;;;;;;;11.95;8.63;;;8.60;99.90;;;;;;5031331;28;20068;-67
2021/10/20 05:54:14;;;;;;;12.23;8.07;;;8.60;99.90;;;;;;5013533;28;20077;-67
2021/10/20 05:56:41;;;;;;;14.80;8.02;;;8.60;99.90;;;;;;5017341;28;20516;-68
2021/10/20 05:59:08;;;;;;;12.88;8.05;;;8.60;99.90;;;;;;5027352;28;20445;-67
2021/10/20 06:01:36;;;;;;;13.45;8.38;;;8.60;99.90;;;;;;5032909;28;20053;-67
2021/10/20 06:04:04;;;;;;;17.90;11.25;;;8.60;99.90;;;;;;5046569;28;20037;-67
2021/10/20 06:06:31;;;;;;;16.33;9.65;;;8.70;99.90;;;;;;5033673;28;20068;-67
2021/10/20 06:08:59;;;;;;;14.88;8.80;;;8.70;99.90;;;;;;5027749;28;20503;-67
2021/10/20 06:11:26;;;;;;;14.10;9.98;;;8.80;99.90;;;;;;5036932;28;20506;-67
2021/10/20 06:13:53;;;;;;;18.10;10.98;;;8.90;99.90;;;;;;5040242;28;20132;-67
2021/10/20 06:16:21;;;;;;;18.00;12.15;;;8.90;99.90;;;;;;5034867;28;20045;-67
2021/10/20 06:18:48;;;;;;;14.73;8.80;;;9.00;99.90;;;;;;5039979;28;20044;-68
2021/10/20 06:21:15;;;;;;;12.48;7.78;;;9.00;99.90;;;;;;5032020;28;20051;-67
2021/10/20 06:23:42;;;;;;;10.63;6.88;;;9.00;99.90;;;;;;5039594;28;20052;-68
2021/10/20 06:26:10;;;;;;;11.27;7.65;;;9.10;99.90;;;;;;5028672;28;20121;-67
2021/10/20 06:28:40;;;;;;;11.95;7.20;;;9.20;99.90;;;;;;5040686;28;20078;-68
2021/10/20 06:31:07;;;;;;;11.25;7.18;;;9.30;99.90;;;;;;5027124;28;20408;-68
2021/10/20 06:33:35;;;;;;;10.18;6.95;;;9.30;99.90;;;;;;5016446;28;20144;-68
2021/10/20 06:36:02;;;;;;;11.05;6.40;;;9.40;99.90;;;;;;5041275;28;20056;-68
2021/10/20 06:38:30;;;;;;;14.13;7.85;;;9.40;99.90;;;;;;5042910;28;20498;-68
2021/10/20 06:40:57;;;;;;;10.93;6.95;;;9.50;99.90;;;;;;5041187;28;20057;-68
2021/10/20 06:43:24;;;;;;;10.85;6.88;;;9.50;99.90;;;;;;5044082;28;20144;-68
2021/10/20 06:45:52;;;;;;;12.63;7.10;;;9.70;99.90;;;;;;5040903;28;20030;-68
2021/10/20 06:48:20;;;;;;;11.60;7.70;;;9.70;99.90;;;;;;5046042;28;20044;-68
2021/10/20 06:50:47;;;;;;;13.43;7.05;;;9.70;99.90;;;;;;5029680;28;20435;-69
2021/10/20 06:53:14;;;;;;;13.15;6.95;;;9.80;99.90;;;;;;5030769;28;20052;-68
2021/10/20 06:55:42;;;;;;;10.38;6.60;;;9.90;99.90;;;;;;5028993;28;20079;-68
2021/10/20 06:58:09;;;;;;;10.00;6.88;;;9.90;99.90;;;;;;5032273;28;20431;-68
2021/10/20 07:00:36;;;;;;;10.20;6.60;;;10.00;99.90;;;;;;5031780;28;20480;-68
2021/10/20 07:03:04;;;;;;;11.88;6.68;;;10.10;99.90;;;;;;5033087;28;20480;-68
2021/10/20 07:05:31;;;;;;;10.48;6.25;;;10.10;99.90;;;;;;5032259;28;20124;-68
2021/10/20 07:07:58;;;;;;;11.88;6.95;;;10.20;99.90;;;;;;5043531;28;20080;-68
2021/10/20 07:10:26;;;;;;;11.40;6.47;;;10.30;99.90;;;;;;5027420;28;20045;-68
2021/10/20 07:12:54;;;;;;;11.20;6.80;;;10.40;99.90;;;;;;5003832;28;20045;-68
2021/10/20 07:15:21;;;;;;;12.35;7.35;;;10.40;99.90;;;;;;5034018;28;20144;-68
2021/10/20 07:17:49;;;;;;;13.70;7.25;;;10.50;99.90;;;;;;4999713;28;20049;-68
2021/10/20 07:20:17;;;;;;;13.25;6.93;;;10.60;99.90;;;;;;5028087;28;20470;-67
2021/10/20 07:22:44;;;;;;;10.10;6.55;;;10.70;99.90;;;;;;5013221;28;20046;-68
2021/10/20 07:25:14;;;;;;;14.32;8.15;;;10.70;99.90;;;;;;5026606;28;20037;-67
2021/10/20 07:27:42;;;;;;;12.18;7.80;;;10.80;99.90;;;;;;5034378;28;20464;-68
2021/10/20 07:30:11;;;;;;;11.68;6.50;;;10.90;99.90;;;;;;5023776;28;20069;-68
2021/10/20 07:32:39;;;;;;;13.18;7.10;;;11.00;99.90;;;;;;5020965;28;20079;-67
2021/10/20 07:35:08;;;;;;;11.48;7.22;;;11.10;99.90;;;;;;5031750;28;20092;-68
2021/10/20 07:37:35;;;;;;;13.95;8.95;;;11.20;99.90;;;;;;5040549;28;20053;-68
2021/10/20 07:40:05;;;;;;;13.80;6.85;;;11.30;99.90;;;;;;5008801;28;20129;-68
2021/10/20 07:42:37;;;;;;;9.60;6.38;;;11.40;99.90;;;;;;5022982;28;20053;-68
2021/10/20 07:45:05;;;;;;;;;;;11.50;99.90;;;;;;5038166;28;20607;-68
2021/10/20 07:47:34;;;;;;;9.45;5.72;;;11.60;99.90;;;;;;5022342;28;20288;-68
2021/10/20 07:50:04;;;;;;;12.95;6.45;;;11.70;99.90;;;;;;5038793;28;20041;-68
2021/10/20 07:52:33;;;;;;;8.32;6.00;;;11.80;99.90;;;;;;5025691;28;20041;-68
2021/10/20 07:55:02;;;;;;;12.40;6.50;;;11.90;99.90;;;;;;5039493;28;20427;-68
2021/10/20 07:57:30;;;;;;;8.52;5.80;;;12.00;99.90;;;;;;5038914;28;20450;-68
2021/10/20 07:59:57;;;;;;;10.50;5.97;;;12.00;99.90;;;;;;5028744;28;20060;-68
2021/10/20 08:02:25;;;;;;;10.60;6.15;;;12.10;99.90;;;;;;5032554;28;20435;-67
2021/10/20 08:04:52;;;;;;;11.25;5.80;;;12.20;99.90;;;;;;5029782;28;20530;-67
2021/10/20 08:07:19;;;;;;;8.70;5.72;;;12.30;99.90;;;;;;5038400;28;20049;-67
2021/10/20 08:09:48;;;;;;;11.52;5.43;;;12.50;99.90;;;;;;5044564;28;20055;-68
2021/10/20 08:12:17;;;;;;;11.07;6.00;;;12.60;99.90;;;;;;5022516;28;20044;-67
2021/10/20 08:14:44;;;;;;;10.27;5.63;;;12.70;99.90;;;;;;5012688;28;20060;-67
2021/10/20 08:17:11;;;;;;;8.80;5.90;;;12.90;99.90;;;;;;5040309;28;20057;-67
2021/10/20 08:19:39;;;;;;;10.40;5.25;;;13.10;99.90;;;;;;5036243;28;20143;-68
2021/10/20 08:22:07;;;;;;;11.57;5.88;;;13.30;99.90;;;;;;5037993;28;20045;-68
2021/10/20 08:24:34;;;;;;;9.70;6.10;;;13.40;99.90;;;;;;5027647;28;20056;-68
2021/10/20 08:27:01;;;;;;;9.25;5.43;;;13.60;99.90;;;;;;5023441;28;20049;-67
2021/10/20 08:29:29;;;;;;;11.55;5.85;;;13.60;99.90;;;;;;5027063;28;20515;-67
2021/10/20 08:31:56;;;;;;;8.57;5.53;;;13.60;99.90;;;;;;5021878;28;20372;-68
2021/10/20 08:34:24;;;;;;;12.23;5.70;;;13.70;99.90;;;;;;5039608;28;20461;-68
2021/10/20 08:36:51;;;;;;;7.88;5.20;;;13.80;99.90;;;;;;5030454;28;20506;-68
2021/10/20 08:39:18;;;;;;;18.55;9.93;;;13.90;99.90;;;;;;5037350;28;20488;-67
2021/10/20 08:41:46;;;;;;;11.93;5.78;;;14.00;99.90;;;;;;5014200;28;20053;-68
2021/10/20 08:44:14;;;;;;;10.52;5.45;;;14.20;99.90;;;;;;5037850;28;20033;-68
2021/10/20 08:46:41;;;;;;;11.50;5.65;;;14.30;99.90;;;;;;5026473;28;20041;-67
2021/10/20 08:49:10;;;;;;;9.90;6.25;;;14.50;99.90;;;;;;5041153;28;20049;-67
2021/10/20 08:51:38;;;;;;;10.73;5.93;;;14.50;99.90;;;;;;5034116;28;20045;-68
2021/10/20 08:54:06;;;;;;;10.95;5.97;;;14.60;99.90;;;;;;5030990;28;20496;-68
2021/10/20 08:56:34;;;;;;;8.20;5.10;;;14.80;99.90;;;;;;5030880;28;20063;-68
2021/10/20 08:59:02;;;;;;;12.45;5.70;;;15.00;99.90;;;;;;5034640;28;20452;-68
2021/10/20 09:01:29;;;;;;;10.90;5.10;;;15.20;99.90;;;;;;5034652;28;20045;-68
2021/10/20 09:04:04;;;;;;;7.07;4.80;;;15.40;99.90;;;;;;5039420;28;20077;-68
2021/10/20 09:06:32;;;;;;;8.98;4.88;;;15.60;99.90;;;;;;5039619;28;20510;-68
2021/10/20 09:09:02;;;;;;;6.97;4.60;;;15.90;99.90;;;;;;5047604;28;20083;-68
2021/10/20 09:14:07;;;;;;;7.75;4.70;;;16.40;99.90;;;;;;5020111;28;20033;-68
2021/10/20 09:16:46;;;;;;;9.52;4.93;;;16.50;99.90;;;;;;5032553;28;20048;-68
2021/10/20 09:19:31;;;;;;;8.93;5.03;;;16.60;99.90;;;;;;5036641;28;20073;-66
2021/10/20 09:22:01;;;;;;;7.57;4.00;;;16.70;99.90;;;;;;5033138;28;20041;-66
2021/10/20 09:24:43;;;;;;;11.05;4.65;;;16.90;99.90;;;;;;5033441;28;20120;-66
2021/10/20 09:27:18;;;;;;;7.63;4.28;;;17.00;99.90;;;;;;5033945;28;20511;-66
2021/10/20 09:29:46;;;;;;;7.85;4.20;;;17.20;99.90;;;;;;5036934;28;20592;-67
2021/10/20 09:32:13;;;;;;;7.22;4.22;;;17.50;99.90;;;;;;5038705;28;20045;-67
2021/10/20 09:34:41;;;;;;;8.02;4.50;;;17.60;99.90;;;;;;5046234;28;20045;-66
2021/10/20 09:37:08;;;;;;;7.10;4.15;;;17.60;99.90;;;;;;5042855;28;20041;-66
2021/10/20 09:39:37;;;;;;;7.47;4.45;;;17.80;99.90;;;;;;5046247;28;20052;-66
2021/10/20 09:42:10;;;;;;;8.90;5.03;;;17.90;99.90;;;;;;5044392;28;20045;-66
2021/10/20 09:44:51;;;;;;;7.75;4.97;;;17.80;99.90;;;;;;5041945;28;20049;-67
2021/10/20 09:47:20;;;;;;;8.30;4.63;;;17.70;99.90;;;;;;5027402;28;20071;-67
2021/10/20 09:49:54;;;;;;;;;;;17.70;99.90;;;;;;5051581;28;20394;-67
2021/10/20 09:52:22;;;;;;;9.00;4.95;;;17.90;99.90;;;;;;5045089;28;19925;-67
2021/10/20 09:54:49;;;;;;;7.45;4.35;;;18.00;99.90;;;;;;5033839;28;20571;-67
2021/10/20 09:57:17;;;;;;;8.27;4.57;;;18.20;99.90;;;;;;5012217;28;20062;-67
2021/10/20 09:59:45;;;;;;;8.63;4.68;;;18.30;99.90;;;;;;5029110;28;20041;-67
2021/10/20 10:02:13;;;;;;;6.90;4.40;;;18.40;99.90;;;;;;5038422;28;20052;-67
2021/10/20 10:04:40;;;;;;;9.23;4.63;;;18.30;99.90;;;;;;5048294;28;20480;-67
2021/10/20 10:07:08;;;;;;;9.50;4.32;;;18.30;99.90;;;;;;5047793;28;20554;-67
2021/10/20 10:09:35;;;;;;;7.60;4.07;;;18.40;99.90;;;;;;5048142;28;20055;-67
2021/10/20 10:12:13;;;;;;;7.50;4.35;;;18.60;99.90;;;;;;5038315;28;20042;-67
2021/10/20 10:14:46;;;;;;;7.72;4.45;;;18.70;99.90;;;;;;5047619;28;20060;-67
2021/10/20 10:17:17;;;;;;;7.82;4.32;;;18.70;99.90;;;;;;5038961;28;20053;-67
2021/10/20 10:19:45;;;;;;;9.10;4.78;;;18.90;99.90;;;;;;5049160;28;20029;-66
2021/10/20 10:22:27;;;;;;;7.78;4.15;;;19.10;99.90;;;;;;5045390;28;20452;-66
2021/10/20 10:24:59;;;;;;;8.90;4.45;;;19.50;99.90;;;;;;5050288;28;20415;-66
2021/10/20 10:27:29;;;;;;;7.65;5.05;;;19.70;99.90;;;;;;5031931;28;20048;-66
2021/10/20 10:30:04;;;;;;;6.20;3.83;;;19.90;99.90;;;;;;5021897;28;20043;-66
2021/10/20 10:32:46;;;;;;;6.85;3.78;;;20.00;99.90;;;;;;5042563;28;20053;-67
2021/10/20 10:35:13;;;;;;;6.25;3.70;;;20.10;99.90;;;;;;5050479;28;20431;-67
2021/10/20 10:37:41;;;;;;;6.68;3.95;;;20.50;99.90;;;;;;5049344;28;20045;-66
2021/10/20 10:40:17;;;;;;;5.65;3.72;;;20.70;99.90;;;;;;5047793;28;20128;-67
2021/10/20 10:42:49;;;;;;;6.22;3.67;;;21.00;99.90;;;;;;5037239;28;20037;-67
2021/10/20 10:45:18;;;;;;;6.78;3.55;;;21.00;99.90;;;;;;5038377;28;20072;-67
2021/10/20 10:48:08;;;;;;;6.25;3.30;;;21.00;99.90;;;;;;5027634;28;20038;-67
2021/10/20 10:50:49;;;;;;;6.85;3.05;;;21.20;99.90;;;;;;5044268;28;20037;-68
2021/10/20 10:53:30;;;;;;;9.18;3.35;;;21.20;99.90;;;;;;5033304;28;20399;-67
2021/10/20 10:56:09;;;;;;;5.45;3.28;;;21.50;99.90;;;;;;5028664;28;20041;-67
2021/10/20 10:59:08;;;;;;;4.88;2.88;;;21.10;99.90;;;;;;5027665;28;20056;-67
2021/10/20 11:01:44;;;;;;;6.22;2.90;;;21.00;99.90;;;;;;5046574;28;20041;-67
2021/10/20 11:04:23;;;;;;;4.65;3.13;;;21.00;99.90;;;;;;5039737;28;20836;-67
2021/10/20 11:06:54;;;;;;;5.82;3.58;;;21.20;99.90;;;;;;5042563;28;20510;-67
2021/10/20 11:09:30;;;;;;;5.75;2.80;;;21.50;99.90;;;;;;5026853;28;20049;-67
2021/10/20 11:12:00;;;;;;;5.57;2.72;;;21.70;99.90;;;;;;5034933;28;20053;-67
2021/10/20 11:14:28;;;;;;;4.65;2.60;;;21.60;99.90;;;;;;5039368;28;20064;-67
2021/10/20 11:17:14;;;;;;;6.90;2.72;;;21.60;99.90;;;;;;5031450;28;20033;-67
2021/10/20 11:19:42;;;;;;;5.57;3.20;;;21.50;99.90;;;;;;5024720;28;20133;-67
2021/10/20 11:22:20;;;;;;;7.32;3.00;;;21.70;99.90;;;;;;5039030;28;20044;-67
2021/10/20 11:24:49;;;;;;;5.55;2.80;;;21.70;99.90;;;;;;5033829;28;20503;-67
2021/10/20 11:27:22;;;;;;;5.80;2.90;;;22.10;99.90;;;;;;5041814;28;20400;-67
2021/10/20 11:29:51;;;;;;;4.15;2.45;;;22.30;99.90;;;;;;5017407;28;20038;-67
2021/10/20 11:32:20;;;;;;;7.32;2.50;;;22.60;99.90;;;;;;5018547;28;20077;-68
2021/10/20 11:34:48;;;;;;;5.95;2.85;;;22.30;99.90;;;;;;5038549;28;20953;-67
2021/10/20 11:37:18;;;;;;;4.22;2.50;;;22.10;99.90;;;;;;5015942;28;20128;-67
2021/10/20 11:39:58;;;;;;;6.38;2.53;;;21.80;99.90;;;;;;5033162;28;20061;-67
2021/10/20 11:42:25;;;;;;;4.43;2.40;;;21.60;99.90;;;;;;5027750;28;20056;-67
2021/10/20 11:44:53;;;;;;;4.45;2.45;;;21.70;99.90;;;;;;5027787;28;20049;-67
2021/10/20 11:47:21;;;;;;;4.28;2.40;;;21.70;99.90;;;;;;5028591;28;20048;-67
2021/10/20 11:49:51;;;;;;;4.93;2.58;;;21.50;99.90;;;;;;5040044;28;20126;-67
2021/10/20 11:52:22;;;;;;;6.00;2.72;;;21.80;99.90;;;;;;5033490;28;20053;-66
2021/10/20 11:54:53;;;;;;;4.60;2.53;;;22.30;99.90;;;;;;5031111;28;20437;-67
2021/10/20 11:57:21;;;;;;;6.97;3.08;;;22.70;99.90;;;;;;5040416;28;20041;-67
2021/10/20 11:59:48;;;;;;;5.15;2.65;;;22.70;99.90;;;;;;5033805;28;20384;-67
2021/10/20 12:02:17;;;;;;;5.70;3.15;;;22.10;99.90;;;;;;5040435;28;20508;-67
2021/10/20 12:04:45;;;;;;;5.50;3.10;;;22.40;99.90;;;;;;5035472;28;20132;-67
2021/10/20 12:07:16;;;;;;;5.50;3.20;;;22.90;99.90;;;;;;5039096;28;20384;-67
2021/10/20 12:09:46;;;;;;;7.05;2.40;;;22.80;99.90;;;;;;5025666;28;20091;-67
2021/10/20 12:12:17;;;;;;;4.85;3.22;;;23.20;99.90;;;;;;5032177;28;20087;-67
2021/10/20 12:14:46;;;;;;;4.28;2.72;;;23.40;99.90;;;;;;5022463;28;20053;-67
2021/10/20 12:17:15;;;;;;;7.65;3.45;;;23.00;99.90;;;;;;5017620;28;20159;-67
2021/10/20 12:19:44;;;;;;;4.28;2.78;;;22.80;99.90;;;;;;5015565;28;20037;-67
2021/10/20 12:22:16;;;;;;;4.88;2.72;;;23.10;99.90;;;;;;5039914;28;20038;-67
2021/10/20 12:24:48;;;;;;;8.60;3.15;;;23.30;99.90;;;;;;5039816;28;20499;-67
2021/10/20 12:27:17;;;;;;;6.30;3.13;;;23.40;99.90;;;;;;5038468;28;20117;-67
2021/10/20 12:29:48;;;;;;;9.23;3.20;;;23.60;99.90;;;;;;5036100;28;20076;-67
2021/10/20 12:32:19;;;;;;;6.82;3.10;;;23.90;99.90;;;;;;5038472;28;20047;-67
2021/10/20 12:35:03;;;;;;;4.45;2.88;;;24.00;99.90;;;;;;5042449;28;20071;-67
2021/10/20 12:37:42;;;;;;;5.78;2.60;;;23.80;99.90;;;;;;5037965;28;20037;-67
2021/10/20 12:40:22;;;;;;;6.70;2.83;;;23.30;99.90;;;;;;5020959;28;20376;-66
2021/10/20 12:42:56;;;;;;;5.28;2.78;;;23.10;99.90;;;;;;5032968;28;20059;-67
2021/10/20 12:45:29;;;;;;;5.47;3.13;;;22.80;99.90;;;;;;5047427;28;20037;-67
2021/10/20 12:48:04;;;;;;;6.47;3.00;;;22.60;99.90;;;;;;5029695;28;20044;-67
2021/10/20 12:50:34;;;;;;;8.07;3.28;;;22.60;99.90;;;;;;5035509;28;20055;-67
2021/10/20 12:53:02;;;;;;;7.00;3.13;;;22.70;99.90;;;;;;5033435;28;20052;-66
2021/10/20 12:55:48;;;;;;;4.72;2.90;;;22.70;99.90;;;;;;5032797;28;20667;-67
2021/10/20 12:58:19;;;;;;;7.68;3.05;;;22.80;99.90;;;;;;5036097;28;20523;-66
2021/10/20 13:00:47;;;;;;;7.03;2.90;;;22.80;99.90;;;;;;5040955;28;20128;-67